createdAt,value
2023-05-10T00:02:02.782Z,1.80
2023-05-10T00:04:30.204Z,1.77
2023-05-10T00:07:00.277Z,1.70
2023-05-10T00:09:27.810Z,1.95
2023-05-10T00:12:00.546Z,1.80
2023-05-10T00:14:28.137Z,1.40
2023-05-10T00:17:02.697Z,1.90
2023-05-10T00:19:30.255Z,1.50
2023-05-10T00:22:19.018Z,1.92
2023-05-10T00:24:51.553Z,1.45
2023-05-10T00:27:35.688Z,1.70
2023-05-10T00:30:09.626Z,1.58
2023-05-10T00:33:32.517Z,2.00
2023-05-10T00:36:36.561Z,1.73
2023-05-10T00:40:16.590Z,1.50
2023-05-10T00:43:46.403Z,2.00
2023-05-10T00:46:39.510Z,1.55
2023-05-10T00:49:12.472Z,1.67
2023-05-10T00:51:40.091Z,1.70
2023-05-10T00:54:12.199Z,1.50
2023-05-10T01:00:08.605Z,1.45
2023-05-10T01:02:54.958Z,1.35
2023-05-10T01:05:32.867Z,1.50
2023-05-10T01:08:02.745Z,1.40
2023-05-10T01:14:18.574Z,1.60
2023-05-10T01:18:03.910Z,1.50
2023-05-10T01:21:02.594Z,1.55
2023-05-10T01:24:08.547Z,1.55
2023-05-10T01:27:08.566Z,1.80
2023-05-10T01:30:44.094Z,1.60
2023-05-10T01:33:37.801Z,1.60
2023-05-10T01:37:19.092Z,1.48
2023-05-10T01:40:14.358Z,1.20
2023-05-10T01:43:41.117Z,1.33
2023-05-10T01:47:08.180Z,1.33
2023-05-10T01:53:01.478Z,1.23
2023-05-10T01:55:56.256Z,1.65
2023-05-10T01:58:33.252Z,1.38
2023-05-10T02:01:39.789Z,1.60
2023-05-10T02:04:11.372Z,1.17
2023-05-10T02:10:03.129Z,1.60
2023-05-10T02:13:22.356Z,1.40
2023-05-10T02:16:08.356Z,1.67
2023-05-10T02:21:50.284Z,1.60
2023-05-10T02:24:50.641Z,1.35
2023-05-10T02:27:44.421Z,1.40
2023-05-10T02:33:38.933Z,1.55
2023-05-10T02:36:18.855Z,1.40
2023-05-10T02:41:42.811Z,1.40
2023-05-10T02:47:33.213Z,1.50
2023-05-10T02:50:31.319Z,1.70
2023-05-10T02:53:06.582Z,1.58
2023-05-10T02:55:53.695Z,1.45
2023-05-10T02:58:47.702Z,1.60
2023-05-10T03:04:14.583Z,1.60
2023-05-10T03:06:42.980Z,1.55
2023-05-10T03:09:13.243Z,1.60
2023-05-10T03:12:14.994Z,1.77
2023-05-10T03:15:08.185Z,1.73
2023-05-10T03:17:44.850Z,1.57
2023-05-10T03:20:26.878Z,1.80
2023-05-10T03:23:29.235Z,1.63
2023-05-10T03:28:49.802Z,1.90
2023-05-10T03:31:33.413Z,1.88
2023-05-10T03:34:04.263Z,1.90
2023-05-10T03:36:52.252Z,1.92
2023-05-10T03:39:26.148Z,1.48
2023-05-10T03:42:00.321Z,2.22
2023-05-10T03:44:39.076Z,1.75
2023-05-10T03:47:10.455Z,1.77
2023-05-10T03:49:51.441Z,1.50
2023-05-10T03:52:27.342Z,1.40
2023-05-10T03:55:56.785Z,1.40
2023-05-10T03:59:01.216Z,1.65
2023-05-10T04:01:38.433Z,1.80
2023-05-10T04:04:26.675Z,2.17
2023-05-10T04:07:03.358Z,1.65
2023-05-10T04:09:33.642Z,1.52
2023-05-10T04:12:10.768Z,1.67
2023-05-10T04:14:42.331Z,1.60
2023-05-10T04:20:15.586Z,1.67
2023-05-10T04:22:52.399Z,1.50
2023-05-10T04:25:44.629Z,1.67
2023-05-10T04:28:27.051Z,1.30
2023-05-10T04:31:22.531Z,1.40
2023-05-10T04:34:30.379Z,1.63
2023-05-10T04:40:09.602Z,1.58
2023-05-10T04:42:42.507Z,1.77
2023-05-10T04:45:11.686Z,1.50
2023-05-10T04:47:39.924Z,1.75
2023-05-10T04:50:14.489Z,1.60
2023-05-10T04:52:44.272Z,1.52
2023-05-10T04:55:12.610Z,1.30
2023-05-10T04:57:43.696Z,1.50
2023-05-10T05:00:14.610Z,1.27
2023-05-10T05:02:50.837Z,1.90
2023-05-10T05:05:27.800Z,1.30
2023-05-10T05:08:21.230Z,1.77
2023-05-10T05:10:51.198Z,1.80
2023-05-10T05:13:52.535Z,1.52
2023-05-10T05:16:27.791Z,1.45
2023-05-10T05:18:58.739Z,1.52
2023-05-10T05:21:27.868Z,2.42
2023-05-10T05:23:56.050Z,1.70
2023-05-10T05:26:24.178Z,2.28
2023-05-10T05:28:54.751Z,1.42
2023-05-10T05:31:25.557Z,1.40
2023-05-10T05:37:53.147Z,1.42
2023-05-10T05:40:44.294Z,1.27
2023-05-10T05:43:44.528Z,1.50
2023-05-10T05:47:24.765Z,1.50
2023-05-10T05:50:43.284Z,1.40
2023-05-10T05:53:45.113Z,1.98
2023-05-10T05:56:12.715Z,1.70
2023-05-10T05:58:40.339Z,1.65
2023-05-10T06:04:55.188Z,1.52
2023-05-10T06:07:24.899Z,1.83
2023-05-10T06:10:43.001Z,1.77
2023-05-10T06:13:12.930Z,1.77
2023-05-10T06:15:58.398Z,1.55
2023-05-10T06:18:26.834Z,1.77
2023-05-10T06:20:54.748Z,1.40
2023-05-10T06:23:23.244Z,1.50
2023-05-10T06:25:51.854Z,1.30
2023-05-10T06:29:00.940Z,1.42
2023-05-10T06:31:36.355Z,1.67
2023-05-10T06:34:04.089Z,1.40
2023-05-10T06:36:37.337Z,1.80
2023-05-10T06:39:30.574Z,1.80
2023-05-10T06:42:10.819Z,1.70
2023-05-10T06:45:15.941Z,1.80
2023-05-10T06:47:56.864Z,1.90
2023-05-10T06:50:32.516Z,1.60
2023-05-10T06:53:00.276Z,1.55
2023-05-10T06:55:27.939Z,1.85
2023-05-10T06:57:56.070Z,1.95
2023-05-10T07:00:23.648Z,1.63
2023-05-10T07:02:51.006Z,1.80
2023-05-10T07:05:18.672Z,2.53
2023-05-10T07:07:46.303Z,1.80
2023-05-10T07:10:14.336Z,1.98
2023-05-10T07:12:41.896Z,1.90
2023-05-10T07:15:09.931Z,2.15
2023-05-10T07:17:42.507Z,1.48
2023-05-10T07:20:12.140Z,1.75
2023-05-10T07:22:39.548Z,1.80
2023-05-10T07:25:07.426Z,1.85
2023-05-10T07:27:34.774Z,1.75
2023-05-10T07:30:02.524Z,1.88
2023-05-10T07:32:29.931Z,1.95
2023-05-10T07:34:57.651Z,1.67
2023-05-10T07:37:28.688Z,2.00
2023-05-10T07:40:01.383Z,2.10
2023-05-10T07:42:29.015Z,1.83
2023-05-10T07:44:56.430Z,2.05
2023-05-10T07:47:24.451Z,2.08
2023-05-10T07:49:52.044Z,1.73
2023-05-10T07:52:22.387Z,2.00
2023-05-10T07:54:50.167Z,2.13
2023-05-10T07:57:18.873Z,2.03
2023-05-10T07:59:46.312Z,2.10
2023-05-10T08:02:13.796Z,1.88
2023-05-10T08:05:16.361Z,1.70
2023-05-10T08:07:47.653Z,2.40
2023-05-10T08:10:15.298Z,2.28
2023-05-10T08:12:42.907Z,2.25
2023-05-10T08:15:19.261Z,2.13
2023-05-10T08:17:46.891Z,2.05
2023-05-10T08:20:17.632Z,2.35
2023-05-10T08:22:50.007Z,2.47
2023-05-10T08:25:19.491Z,2.30
2023-05-10T08:27:47.328Z,2.20
2023-05-10T08:30:15.038Z,1.90
2023-05-10T08:32:43.082Z,1.98
2023-05-10T08:35:10.862Z,2.28
2023-05-10T08:37:38.370Z,1.98
2023-05-10T08:40:06.463Z,2.10
2023-05-10T08:42:38.782Z,1.95
2023-05-10T08:45:08.215Z,2.17
2023-05-10T08:47:39.036Z,2.30
2023-05-10T08:50:07.662Z,1.90
2023-05-10T08:52:39.926Z,2.13
2023-05-10T08:55:08.250Z,2.38
2023-05-10T08:57:36.676Z,1.90
2023-05-10T09:00:05.057Z,1.95
2023-05-10T09:02:57.968Z,2.00
2023-05-10T09:05:27.984Z,2.28
2023-05-10T09:07:55.723Z,2.35
2023-05-10T09:10:24.070Z,2.00
2023-05-10T09:12:51.906Z,2.10
2023-05-10T09:15:21.064Z,1.75
2023-05-10T09:17:52.154Z,2.08
2023-05-10T09:20:26.913Z,1.95
2023-05-10T09:25:21.663Z,1.83
2023-05-10T09:27:50.212Z,2.20
2023-05-10T09:30:33.792Z,2.05
2023-05-10T09:33:12.817Z,3.25
2023-05-10T09:35:41.122Z,2.40
2023-05-10T09:38:08.579Z,2.17
2023-05-10T09:40:36.068Z,2.47
2023-05-10T09:43:09.526Z,2.03
2023-05-10T09:45:38.825Z,1.92
2023-05-10T09:48:07.065Z,2.75
2023-05-10T09:50:35.407Z,2.45
2023-05-10T09:53:04.556Z,2.00
2023-05-10T09:55:42.303Z,2.10
2023-05-10T09:58:13.022Z,1.70
2023-05-10T10:00:45.441Z,2.35
2023-05-10T10:03:21.280Z,1.63
2023-05-10T10:05:50.364Z,2.33
2023-05-10T10:08:18.623Z,2.00
2023-05-10T10:10:47.409Z,2.15
2023-05-10T10:13:16.461Z,2.10
2023-05-10T10:15:45.649Z,2.60
2023-05-10T10:18:16.372Z,1.83
2023-05-10T10:20:44.067Z,2.30
2023-05-10T10:23:11.477Z,2.58
2023-05-10T10:25:40.463Z,2.20
2023-05-10T10:28:22.659Z,2.35
2023-05-10T10:30:53.912Z,2.28
2023-05-10T10:34:11.887Z,2.08
2023-05-10T10:36:48.613Z,2.00
2023-05-10T10:39:17.016Z,2.10
2023-05-10T10:41:55.760Z,2.33
2023-05-10T10:44:35.074Z,2.40
2023-05-10T10:47:09.170Z,2.08
2023-05-10T10:49:56.196Z,2.40
2023-05-10T10:52:34.130Z,2.30
2023-05-10T10:55:10.100Z,2.20
2023-05-10T10:57:54.406Z,2.10
2023-05-10T11:00:26.305Z,1.95
2023-05-10T11:03:05.327Z,1.95
2023-05-10T11:05:36.500Z,2.00
2023-05-10T11:08:32.172Z,2.22
2023-05-10T11:11:09.958Z,2.03
2023-05-10T11:13:51.200Z,2.17
2023-05-10T11:16:26.659Z,2.88
2023-05-10T11:19:02.231Z,2.10
2023-05-10T11:21:34.342Z,1.92
2023-05-10T11:24:06.814Z,2.33
2023-05-10T11:26:36.623Z,1.90
2023-05-10T11:29:06.301Z,2.30
2023-05-10T11:31:34.227Z,2.85
2023-05-10T11:34:05.179Z,2.28
2023-05-10T11:36:37.410Z,2.20
2023-05-10T11:39:06.647Z,2.42
2023-05-10T11:41:34.594Z,2.22
2023-05-10T11:44:06.777Z,2.08
2023-05-10T11:47:01.490Z,2.47
2023-05-10T11:49:59.190Z,2.22
2023-05-10T11:52:27.669Z,2.00
2023-05-10T11:54:56.163Z,1.77
2023-05-10T11:57:28.946Z,2.10
2023-05-10T12:00:04.620Z,2.30
2023-05-10T12:02:42.468Z,2.08
2023-05-10T12:05:11.728Z,2.25
2023-05-10T12:07:49.070Z,2.70
2023-05-10T12:10:18.784Z,2.35
2023-05-10T12:12:49.123Z,2.10
2023-05-10T12:15:33.411Z,2.30
2023-05-10T12:18:02.472Z,1.92
2023-05-10T12:20:30.386Z,2.00
2023-05-10T12:23:00.624Z,2.08
2023-05-10T12:25:35.645Z,2.10
2023-05-10T12:28:06.812Z,2.10
2023-05-10T12:30:36.552Z,2.10
2023-05-10T12:33:16.172Z,2.20
2023-05-10T12:35:58.980Z,2.30
2023-05-10T12:38:51.174Z,2.55
2023-05-10T12:41:19.445Z,2.15
2023-05-10T12:43:47.343Z,1.98
2023-05-10T12:46:20.853Z,2.30
2023-05-10T12:48:55.192Z,2.00
2023-05-10T12:51:27.692Z,2.22
2023-05-10T12:53:55.511Z,1.83
2023-05-10T12:56:22.942Z,1.92
2023-05-10T12:58:50.744Z,2.40
2023-05-10T13:01:31.847Z,2.60
2023-05-10T13:04:00.977Z,2.17
2023-05-10T13:06:28.607Z,2.28
2023-05-10T13:09:14.294Z,2.20
2023-05-10T13:11:41.803Z,2.28
2023-05-10T13:14:09.119Z,2.10
2023-05-10T13:16:36.912Z,2.08
2023-05-10T13:19:07.316Z,2.38
2023-05-10T13:21:36.863Z,1.88
2023-05-10T13:24:04.390Z,2.40
2023-05-10T13:26:31.854Z,2.08
2023-05-10T13:28:59.634Z,1.88
2023-05-10T13:31:30.323Z,2.10
2023-05-10T13:37:05.411Z,1.90
2023-05-10T13:39:35.439Z,2.00
2023-05-10T13:42:04.120Z,2.35
2023-05-10T13:44:31.836Z,2.28
2023-05-10T13:46:59.322Z,2.20
2023-05-10T13:49:36.664Z,1.88
2023-05-10T13:52:08.734Z,2.00
2023-05-10T13:55:13.457Z,2.00
2023-05-10T14:05:22.372Z,2.03
2023-05-10T14:11:24.889Z,2.30
2023-05-10T14:13:55.675Z,2.13
2023-05-10T14:16:23.327Z,2.00
2023-05-10T14:18:52.722Z,1.80
2023-05-10T14:21:20.258Z,1.90
2023-05-10T14:23:47.608Z,1.98
2023-05-10T14:26:18.509Z,2.22
2023-05-10T14:28:47.337Z,2.25
2023-05-10T14:31:37.003Z,1.90
2023-05-10T14:34:13.314Z,2.10
2023-05-10T14:37:08.075Z,2.17
2023-05-10T14:39:36.321Z,1.88
2023-05-10T14:42:29.518Z,2.00
2023-05-10T14:44:57.430Z,1.58
2023-05-10T14:47:25.161Z,1.70
2023-05-10T14:49:52.665Z,1.90
2023-05-10T14:53:01.055Z,2.10
2023-05-10T14:55:28.884Z,2.15
2023-05-10T14:57:56.531Z,2.03
2023-05-10T15:00:31.788Z,2.55
2023-05-10T15:24:46.636Z,2.53
2023-05-10T15:27:17.822Z,2.40
2023-05-10T15:29:48.589Z,1.98
2023-05-10T15:32:21.548Z,2.13
2023-05-10T15:34:55.659Z,2.25
2023-05-10T15:37:28.021Z,2.22
2023-05-10T15:39:57.489Z,1.90
2023-05-10T15:42:28.865Z,2.50
2023-05-10T15:45:04.550Z,2.40
2023-05-10T15:52:32.630Z,2.20
2023-05-10T16:01:55.339Z,2.17
2023-05-10T16:05:06.162Z,2.13
2023-05-10T16:07:42.436Z,2.60
2023-05-10T16:10:36.084Z,2.08
2023-05-10T16:13:26.891Z,1.90
2023-05-10T16:16:34.438Z,2.10
2023-05-10T16:19:57.386Z,2.00
2023-05-10T16:22:39.116Z,2.05
2023-05-10T16:25:13.724Z,2.05
2023-05-10T16:38:19.975Z,2.30
2023-05-10T16:40:51.726Z,1.90
2023-05-10T16:43:19.279Z,2.13
2023-05-10T16:45:46.540Z,2.70
2023-05-10T16:48:13.927Z,2.72
2023-05-10T16:50:44.473Z,2.30
2023-05-10T16:53:11.915Z,2.72
2023-05-10T16:55:39.416Z,2.22
2023-05-10T16:58:06.766Z,3.13
2023-05-10T17:00:34.320Z,1.98
2023-05-10T17:03:01.932Z,2.28
2023-05-10T17:05:30.700Z,2.97
2023-05-10T17:07:58.148Z,2.60
2023-05-10T17:10:26.076Z,2.67
2023-05-10T17:12:53.816Z,2.63
2023-05-10T17:15:21.710Z,2.90
2023-05-10T17:17:49.187Z,2.35
2023-05-10T17:20:16.590Z,2.50
2023-05-10T17:22:44.107Z,2.53
2023-05-10T17:25:11.640Z,2.50
2023-05-10T17:27:38.969Z,2.20
2023-05-10T17:30:07.304Z,2.83
2023-05-10T17:32:34.853Z,2.42
2023-05-10T17:35:09.911Z,2.50
2023-05-10T17:37:37.539Z,2.63
2023-05-10T17:40:13.056Z,2.33
2023-05-10T17:42:41.686Z,2.88
2023-05-10T17:45:21.331Z,2.53
2023-05-10T17:47:56.514Z,2.05
2023-05-10T17:50:23.962Z,2.35
2023-05-10T17:52:57.434Z,2.15
2023-05-10T17:55:30.153Z,2.15
2023-05-10T17:57:59.562Z,2.17
2023-05-10T18:00:30.967Z,2.10
2023-05-10T18:02:58.417Z,2.30
2023-05-10T18:05:25.937Z,2.08
2023-05-10T18:07:53.370Z,1.85
2023-05-10T18:10:20.904Z,2.45
2023-05-10T18:12:50.631Z,2.60
2023-05-10T18:15:18.346Z,2.10
2023-05-10T18:17:45.923Z,1.70
2023-05-10T18:20:13.568Z,1.40
2023-05-10T18:22:40.983Z,1.60
2023-05-10T18:25:09.180Z,1.95
2023-05-10T18:27:36.781Z,1.50
2023-05-10T18:30:06.221Z,1.50
2023-05-10T18:32:33.991Z,1.70
2023-05-10T18:35:01.608Z,1.60
2023-05-10T18:37:30.466Z,1.50
2023-05-10T18:39:59.336Z,1.45
2023-05-10T18:42:35.617Z,1.50
2023-05-10T18:45:03.656Z,1.55
2023-05-10T18:47:31.247Z,1.80
2023-05-10T18:49:58.679Z,1.60
2023-05-10T18:52:26.453Z,1.50
2023-05-10T18:54:54.085Z,1.40
2023-05-10T18:57:22.328Z,1.73
2023-05-10T18:59:50.611Z,1.80
2023-05-10T19:02:18.847Z,1.60
2023-05-10T19:04:46.716Z,1.58
2023-05-10T19:07:14.479Z,1.40
2023-05-10T19:09:42.140Z,1.52
2023-05-10T19:12:09.790Z,1.67
2023-05-10T19:14:37.346Z,1.33
2023-05-10T19:17:04.740Z,1.65
2023-05-10T19:19:32.959Z,1.70
2023-05-10T19:22:01.370Z,1.73
2023-05-10T19:24:29.213Z,1.73
2023-05-10T19:26:58.123Z,1.70
2023-05-10T19:29:26.293Z,2.22
2023-05-10T19:31:53.921Z,1.95
2023-05-10T19:34:21.516Z,1.85
2023-05-10T19:36:50.988Z,1.52
2023-05-10T19:39:19.600Z,1.20
2023-05-10T19:41:47.209Z,2.20
2023-05-10T19:44:18.925Z,1.60
2023-05-10T19:46:46.895Z,1.30
2023-05-10T19:49:14.435Z,1.70
2023-05-10T19:51:41.922Z,1.92
2023-05-10T19:54:09.268Z,2.10
2023-05-10T19:56:36.619Z,1.65
2023-05-10T19:59:04.080Z,1.45
2023-05-10T20:01:32.849Z,1.65
2023-05-10T20:04:00.412Z,1.48
2023-05-10T20:06:43.369Z,1.60
2023-05-10T20:10:24.279Z,1.95
2023-05-10T20:12:54.020Z,1.92
2023-05-10T20:16:03.073Z,1.77
2023-05-10T20:19:13.583Z,1.50
2023-05-10T20:21:49.339Z,1.40
2023-05-10T20:24:32.952Z,2.17
2023-05-10T20:27:05.620Z,2.33
2023-05-10T20:29:33.191Z,2.70
2023-05-10T20:32:00.373Z,1.95
2023-05-10T20:34:31.098Z,2.22
2023-05-10T20:36:58.396Z,2.42
2023-05-10T20:39:25.858Z,2.50
2023-05-10T20:41:54.904Z,1.92
2023-05-10T20:44:22.239Z,2.20
2023-05-10T20:47:01.239Z,2.40
2023-05-10T20:49:29.515Z,2.50
2023-05-10T20:51:56.753Z,2.50
2023-05-10T21:52:05.593Z,3.45
2023-05-10T21:54:56.432Z,3.47
2023-05-10T21:58:00.456Z,2.72
2023-05-10T22:00:36.399Z,3.35
2023-05-10T22:03:21.694Z,3.40
2023-05-10T22:06:00.724Z,3.30
2023-05-10T22:09:36.283Z,2.72
2023-05-10T22:12:28.017Z,3.30
2023-05-10T22:15:18.965Z,3.43
2023-05-10T22:18:00.912Z,3.60
2023-05-10T22:20:29.121Z,3.70
2023-05-10T22:22:57.336Z,3.45
2023-05-10T22:25:37.108Z,3.40
2023-05-10T22:28:12.646Z,3.50
2023-05-10T22:30:42.979Z,3.90
2023-05-10T22:33:18.012Z,3.75
2023-05-10T22:38:14.548Z,4.00
2023-05-10T22:40:44.384Z,3.75
2023-05-10T22:43:15.398Z,3.83
2023-05-10T22:45:45.851Z,3.33
2023-05-10T22:48:16.240Z,3.53
2023-05-10T22:50:47.931Z,3.20
2023-05-10T22:58:01.130Z,3.70
2023-05-10T23:01:12.232Z,4.00
2023-05-10T23:08:46.144Z,3.63
2023-05-10T23:11:18.808Z,3.33
2023-05-10T23:14:51.139Z,3.90
2023-05-10T23:17:29.646Z,4.18
2023-05-10T23:20:17.444Z,3.88
2023-05-10T23:22:46.087Z,4.38
2023-05-10T23:25:35.774Z,4.38
2023-05-10T23:28:23.232Z,4.75
2023-05-10T23:30:58.853Z,4.72
2023-05-10T23:33:33.579Z,4.40
2023-05-10T23:36:09.972Z,4.32
2023-05-10T23:38:51.102Z,4.85
2023-05-10T23:41:26.937Z,4.25
2023-05-10T23:43:58.289Z,4.25
2023-05-10T23:46:29.713Z,4.88
2023-05-10T23:48:58.590Z,4.38
2023-05-10T23:51:30.574Z,4.85
2023-05-10T23:54:08.835Z,4.80
2023-05-10T23:56:44.250Z,4.85
